Time;durP1;ratioP1;P1;durP2;ratioP2;P2;SDS_P1;SDS_P2;PMS_P1;PMS_P2;Temp;Humidity;BMP_temperature;BMP_pressure;BME280_temperature;BME280_humidity;BME280_pressure;Samples;Min_cycle;Max_cycle;Signal;HPM_P1;HPM_P2
2022/11/05 00:17:10;;;;;;;0.10;0.10;;;8.60;99.90;7.50;96758.00;;;;5011311;28;20332;-74
2022/11/05 00:19:38;;;;;;;0.10;0.10;;;8.60;99.90;7.50;96744.00;;;;5015357;28;20214;-74
2022/11/05 00:27:39;;;;;;;0.00;0.00;;;8.80;99.90;7.00;96761.00;;;;5080714;28;20197;-74
2022/11/05 00:30:09;;;;;;;0.10;0.10;;;8.80;99.90;7.50;96751.00;;;;5081304;28;20210;-74
2022/11/05 00:32:38;;;;;;;0.10;0.10;;;8.70;99.90;6.30;96719.00;;;;5077268;28;20280;-74
2022/11/05 00:35:08;;;;;;;0.10;0.10;;;8.60;99.90;7.10;96763.00;;;;5061007;28;20229;-75
2022/11/05 00:37:38;;;;;;;0.10;0.10;;;8.60;99.90;7.40;96759.00;;;;5076299;28;20245;-75
2022/11/05 00:40:09;;;;;;;0.10;0.10;;;8.60;99.90;7.30;96826.00;;;;5078043;28;20213;-75
2022/11/05 00:45:29;;;;;;;0.10;0.10;;;8.50;99.90;7.40;96809.00;;;;5058925;28;20201;-74
2022/11/05 00:50:43;;;;;;;0.10;0.10;;;8.50;99.90;7.30;96632.00;;;;5083735;28;20278;-74
2022/11/05 00:53:11;;;;;;;0.10;0.10;;;8.50;99.90;7.30;96690.00;;;;5084835;28;20939;-74
2022/11/05 00:55:42;;;;;;;0.10;0.10;;;8.40;99.90;7.30;96798.00;;;;5076449;28;20223;-75
2022/11/05 00:58:17;;;;;;;0.10;0.10;;;8.40;99.90;7.30;96798.00;;;;5081728;28;20250;-74
2022/11/05 01:00:50;;;;;;;0.10;0.10;;;8.40;99.90;7.30;96805.00;;;;5080334;28;20217;-73
2022/11/05 01:03:23;;;;;;;0.10;0.10;;;8.40;99.90;7.30;96798.00;;;;5079889;28;20216;-74
2022/11/05 01:05:55;;;;;;;0.10;0.10;;;8.40;99.90;7.30;96798.00;;;;5075740;28;20194;-74
2022/11/05 01:08:26;;;;;;;0.00;0.00;;;8.40;99.90;7.20;96775.00;;;;5073257;28;20210;-74
2022/11/05 01:10:57;;;;;;;0.10;0.10;;;8.30;99.90;7.20;96828.00;;;;5076825;28;20235;-75
2022/11/05 01:13:30;;;;;;;0.10;0.10;;;8.40;99.90;7.20;96814.00;;;;5076491;28;20193;-75
2022/11/05 01:16:05;;;;;;;0.10;0.10;;;8.30;99.90;7.10;96751.00;;;;5076916;28;20216;-74
2022/11/05 01:18:34;;;;;;;0.10;0.10;;;8.20;99.90;7.10;96801.00;;;;5071907;28;20204;-74
2022/11/05 01:21:11;;;;;;;0.10;0.10;;;8.10;99.90;6.20;96811.00;;;;5072607;28;20758;-74
2022/11/05 01:23:39;;;;;;;0.10;0.10;;;8.10;99.90;7.00;96808.00;;;;5072499;28;20201;-75
2022/11/05 01:26:07;;;;;;;0.10;0.10;;;8.10;99.90;7.00;96821.00;;;;5054595;28;20247;-74
2022/11/05 01:28:37;;;;;;;0.10;0.10;;;8.00;99.90;7.00;96815.00;;;;5071960;28;20198;-74
2022/11/05 01:31:05;;;;;;;0.10;0.10;;;8.10;99.90;7.10;96819.00;;;;5072608;28;20205;-73
2022/11/05 01:33:34;;;;;;;0.10;0.10;;;8.10;99.90;7.10;96818.00;;;;5073085;28;20239;-75
2022/11/05 01:36:04;;;;;;;0.10;0.10;;;8.10;99.90;7.10;96827.00;;;;5071839;28;20198;-75
2022/11/05 01:38:32;;;;;;;0.10;0.10;;;8.10;99.90;7.10;96832.00;;;;5053687;28;20226;-75
2022/11/05 01:41:00;;;;;;;0.10;0.10;;;8.20;99.90;7.10;96833.00;;;;5072260;28;20224;-75
2022/11/05 01:43:49;;;;;;;0.10;0.10;;;8.20;99.90;7.20;96838.00;;;;5072199;28;20660;-73
2022/11/05 01:46:21;;;;;;;0.10;0.10;;;8.20;99.90;7.20;96817.00;;;;5071698;28;20205;-74
2022/11/05 01:48:53;;;;;;;0.10;0.10;;;8.30;99.90;7.30;96835.00;;;;5071505;28;20631;-74
2022/11/05 01:51:29;;;;;;;0.10;0.10;;;8.40;99.90;7.30;96843.00;;;;5071790;28;20221;-74
2022/11/05 01:54:05;;;;;;;0.10;0.10;;;8.40;99.90;7.30;96831.00;;;;5069214;28;20185;-74
2022/11/05 01:56:39;;;;;;;0.10;0.10;;;8.40;99.90;7.30;96787.00;;;;5068961;28;20197;-74
2022/11/05 01:59:14;;;;;;;0.10;0.10;;;8.40;99.90;7.30;96844.00;;;;5071126;28;20239;-74
2022/11/05 02:01:42;;;;;;;0.10;0.10;;;8.40;99.90;7.30;96843.00;;;;5071204;28;20209;-73
2022/11/05 02:04:17;;;;;;;0.10;0.10;;;8.40;99.90;7.40;96850.00;;;;5071543;28;20300;-74
2022/11/05 02:06:46;;;;;;;0.10;0.10;;;8.50;99.90;7.60;96846.00;;;;5071627;28;20193;-74
2022/11/05 02:09:22;;;;;;;0.10;0.10;;;8.60;99.90;7.70;96857.00;;;;5053509;28;20220;-75
2022/11/05 02:11:51;;;;;;;0.00;0.00;;;8.70;99.90;7.70;96860.00;;;;5053914;28;20210;-75
2022/11/05 02:14:21;;;;;;;0.10;0.10;;;8.80;99.90;7.80;96807.00;;;;5066073;28;20243;-74
2022/11/05 02:16:59;;;;;;;0.10;0.10;;;8.80;99.90;7.70;96858.00;;;;5071965;28;20201;-74
2022/11/05 02:20:16;;;;;;;0.10;0.10;;;8.80;99.90;7.80;96855.00;;;;5072628;28;20672;-75
2022/11/05 02:23:18;;;;;;;0.00;0.00;;;8.90;99.90;7.90;96871.00;;;;5071373;28;20198;-74
2022/11/05 02:26:57;;;;;;;0.10;0.10;;;8.90;99.90;8.00;96863.00;;;;5072697;28;20231;-75
2022/11/05 02:30:07;;;;;;;0.10;0.10;;;9.00;99.90;7.90;96871.00;;;;5041104;28;20227;-75
2022/11/05 02:33:00;;;;;;;0.10;0.10;;;9.00;99.90;8.00;96866.00;;;;5058446;28;20268;-75
2022/11/05 02:35:51;;;;;;;0.00;0.00;;;9.00;99.90;8.00;96869.00;;;;5063897;28;20235;-75
2022/11/05 02:38:37;;;;;;;0.10;0.10;;;9.10;99.90;8.00;96874.00;;;;5070448;28;20225;-75
2022/11/05 02:41:18;;;;;;;0.10;0.10;;;9.00;99.90;7.90;96871.00;;;;5071164;28;20224;-75
2022/11/05 02:43:59;;;;;;;0.10;0.10;;;9.00;99.90;7.90;96878.00;;;;5071744;28;20243;-74
2022/11/05 02:46:38;;;;;;;0.10;0.10;;;9.00;99.90;7.90;96878.00;;;;5071093;28;20697;-77
2022/11/05 02:49:22;;;;;;;0.10;0.10;;;9.00;99.90;7.80;96886.00;;;;5071050;28;20197;-75
2022/11/05 02:51:58;;;;;;;0.10;0.10;;;8.90;99.90;7.70;96882.00;;;;5071644;28;20295;-75
2022/11/05 02:54:35;;;;;;;0.10;0.10;;;8.80;99.90;7.70;96890.00;;;;5073198;28;20188;-75
2022/11/05 02:57:05;;;;;;;0.10;0.10;;;8.80;99.90;7.60;96899.00;;;;5071094;28;20189;-75
2022/11/05 02:59:33;;;;;;;0.10;0.10;;;8.70;99.90;7.60;96887.00;;;;5071750;28;20190;-76
2022/11/05 03:02:03;;;;;;;0.10;0.10;;;8.70;99.90;7.60;96891.00;;;;5071116;28;20186;-76
2022/11/05 03:04:33;;;;;;;0.10;0.10;;;8.70;99.90;7.60;96908.00;;;;5072511;28;20201;-76
2022/11/05 03:07:22;;;;;;;0.10;0.10;;;8.70;99.90;7.60;96883.00;;;;5071851;28;20212;-76
2022/11/05 03:10:25;;;;;;;0.10;0.10;;;8.70;99.90;7.60;96888.00;;;;5071579;28;20270;-76
2022/11/05 03:13:10;;;;;;;0.10;0.10;;;8.70;99.90;7.60;96898.00;;;;5071446;28;20606;-76
2022/11/05 03:15:56;;;;;;;0.10;0.10;;;8.70;99.90;7.60;96896.00;;;;5071093;28;20623;-76
2022/11/05 03:18:38;;;;;;;0.10;0.10;;;8.60;99.90;7.60;96902.00;;;;5070927;28;20323;-77
2022/11/05 03:21:16;;;;;;;0.10;0.10;;;8.70;99.90;7.70;96907.00;;;;5071880;28;20210;-76
2022/11/05 03:23:54;;;;;;;0.00;0.00;;;8.80;99.90;7.80;96908.00;;;;5071519;28;20211;-76
2022/11/05 03:26:29;;;;;;;0.10;0.10;;;8.90;99.90;7.80;96904.00;;;;5070892;28;20621;-75
2022/11/05 03:29:05;;;;;;;0.10;0.10;;;8.90;99.90;7.80;96909.00;;;;5069303;28;20201;-75
2022/11/05 03:31:36;;;;;;;0.10;0.10;;;8.80;99.90;7.80;96912.00;;;;5071874;28;20647;-75
2022/11/05 03:34:08;;;;;;;0.10;0.10;;;8.80;99.90;7.70;96905.00;;;;5073494;28;20225;-76
2022/11/05 03:36:44;;;;;;;0.00;0.00;;;8.80;99.90;7.60;96912.00;;;;5065187;28;20598;-75
2022/11/05 03:39:19;;;;;;;0.10;0.10;;;8.70;99.90;7.60;96934.00;;;;5075154;28;20213;-74
2022/11/05 03:41:52;;;;;;;0.10;0.10;;;8.70;99.90;7.60;96914.00;;;;5072921;28;20264;-76
2022/11/05 03:44:28;;;;;;;0.10;0.10;;;8.70;99.90;7.60;96915.00;;;;5072855;28;20198;-75
2022/11/05 03:47:04;;;;;;;0.10;0.10;;;8.60;99.90;7.50;96919.00;;;;5075255;28;20197;-75
2022/11/05 03:49:38;;;;;;;0.10;0.10;;;8.60;99.90;7.50;96934.00;;;;5074703;28;20251;-75
2022/11/05 03:52:15;;;;;;;0.10;0.10;;;8.60;99.90;7.50;96924.00;;;;5078039;28;20200;-75
2022/11/05 03:54:43;;;;;;;0.10;0.10;;;8.60;99.90;7.50;96928.00;;;;5077848;28;20189;-75
2022/11/05 03:57:20;;;;;;;0.08;0.08;;;8.60;99.90;7.50;96923.00;;;;5075283;28;20194;-75
2022/11/05 03:59:50;;;;;;;0.10;0.10;;;8.60;99.90;7.40;96920.00;;;;5076300;28;20247;-75
2022/11/05 04:02:22;;;;;;;0.10;0.10;;;8.60;99.90;7.50;96921.00;;;;5078193;28;20193;-75
2022/11/05 04:04:50;;;;;;;0.10;0.10;;;8.60;99.90;7.50;96921.00;;;;5077762;28;20193;-75
2022/11/05 04:18:20;;;;;;;0.00;0.00;;;8.70;99.90;7.50;96939.00;;;;5077720;28;20253;-75
2022/11/05 04:26:22;;;;;;;0.10;0.10;;;8.70;99.90;7.50;96951.00;;;;5062689;28;20202;-75
2022/11/05 04:31:36;;;;;;;0.10;0.10;;;8.60;99.90;7.50;96952.00;;;;5077406;28;20557;-74
2022/11/05 04:34:05;;;;;;;0.00;0.00;;;8.60;99.90;7.60;96863.00;;;;5078541;28;20201;-74
2022/11/05 04:36:35;;;;;;;0.00;0.00;;;8.70;99.90;7.40;96724.00;;;;5060414;28;20198;-75
2022/11/05 04:39:05;;;;;;;0.10;0.10;;;8.50;99.90;7.40;96951.00;;;;5083376;28;20224;-73
2022/11/05 04:41:33;;;;;;;0.10;0.10;;;8.60;99.90;7.40;96973.00;;;;5078209;28;20214;-72
2022/11/05 04:44:01;;;;;;;0.10;0.10;;;8.60;99.90;7.30;97036.00;;;;5079836;28;20194;-74
2022/11/05 04:46:29;;;;;;;0.10;0.10;;;8.60;99.90;7.30;96965.00;;;;5070027;28;20649;-74
2022/11/05 04:48:57;;;;;;;0.10;0.10;;;8.50;99.90;6.30;96943.00;;;;5074998;28;20190;-73
2022/11/05 04:51:26;;;;;;;0.10;0.10;;;8.50;99.90;7.30;96966.00;;;;5075647;28;20275;-74
2022/11/05 04:53:55;;;;;;;0.10;0.10;;;8.40;99.90;7.20;96958.00;;;;5068017;28;20186;-73
2022/11/05 04:56:25;;;;;;;0.10;0.10;;;8.30;99.90;7.10;96941.00;;;;5065363;28;20245;-74
2022/11/05 04:58:53;;;;;;;0.10;0.10;;;8.30;99.90;7.00;96922.00;;;;5079060;28;20320;-75
2022/11/05 05:01:24;;;;;;;0.10;0.10;;;8.20;99.90;7.00;96965.00;;;;5063157;28;20221;-74
2022/11/05 05:03:54;;;;;;;0.10;0.10;;;8.20;99.90;6.90;96977.00;;;;5077034;28;20792;-74
2022/11/05 05:06:22;;;;;;;0.10;0.10;;;8.10;99.90;6.80;96968.00;;;;5073676;28;20194;-75
2022/11/05 05:08:52;;;;;;;0.10;0.10;;;8.10;99.90;6.90;96969.00;;;;5073459;28;20221;-75
2022/11/05 05:11:22;;;;;;;0.03;0.03;;;8.20;99.90;7.10;96943.00;;;;5074025;28;20209;-74
2022/11/05 05:13:54;;;;;;;0.10;0.10;;;8.30;99.90;7.20;96987.00;;;;5077685;28;20197;-74
2022/11/05 05:16:24;;;;;;;0.10;0.10;;;8.30;99.90;7.20;97027.00;;;;5075338;28;20206;-74
2022/11/05 05:18:54;;;;;;;0.10;0.10;;;8.40;99.90;7.30;96991.00;;;;5072695;28;20210;-75
2022/11/05 05:21:37;;;;;;;0.10;0.10;;;8.40;99.90;7.20;97008.00;;;;5074921;28;20210;-75
2022/11/05 05:24:09;;;;;;;0.10;0.10;;;8.40;99.90;7.10;96988.00;;;;5078542;28;20190;-75
2022/11/05 05:26:44;;;;;;;0.10;0.10;;;8.30;99.90;7.10;96964.00;;;;5076501;28;20208;-74
2022/11/05 05:29:17;;;;;;;0.10;0.10;;;8.20;99.90;7.00;96978.00;;;;5079498;28;20205;-74
2022/11/05 05:31:46;;;;;;;0.10;0.10;;;8.10;99.90;6.90;96979.00;;;;5077058;28;20244;-74
2022/11/05 05:34:14;;;;;;;0.10;0.10;;;8.20;99.90;6.90;97007.00;;;;5073005;28;20194;-74
2022/11/05 05:36:43;;;;;;;0.10;0.10;;;8.10;99.90;6.80;97018.00;;;;5074434;28;20193;-74
2022/11/05 05:39:11;;;;;;;0.10;0.10;;;8.00;99.90;6.80;97018.00;;;;5071633;28;20218;-74
2022/11/05 05:41:39;;;;;;;0.10;0.10;;;8.00;99.90;6.80;97028.00;;;;5071058;28;20210;-73
2022/11/05 05:44:07;;;;;;;0.10;0.10;;;8.10;99.90;6.80;97029.00;;;;5072108;28;20228;-73
2022/11/05 05:46:37;;;;;;;0.10;0.10;;;8.00;99.90;6.70;97034.00;;;;5071023;28;20202;-73
2022/11/05 05:49:05;;;;;;;0.10;0.10;;;7.90;99.90;6.60;97036.00;;;;5070908;28;20193;-74
2022/11/05 05:51:39;;;;;;;0.00;0.00;;;7.80;99.90;6.60;97038.00;;;;5072071;28;20216;-73
2022/11/05 05:54:07;;;;;;;0.00;0.00;;;7.80;99.90;6.70;97052.00;;;;5071869;28;20737;-73
2022/11/05 05:56:35;;;;;;;0.10;0.10;;;7.90;99.90;6.70;97059.00;;;;5071525;28;20193;-75
2022/11/05 05:59:05;;;;;;;0.10;0.10;;;7.90;99.90;6.50;97052.00;;;;5071481;28;20267;-74
2022/11/05 06:01:34;;;;;;;0.10;0.10;;;7.70;99.90;6.50;97055.00;;;;5072334;28;20267;-75
2022/11/05 06:04:04;;;;;;;0.00;0.00;;;7.70;99.90;6.50;97005.00;;;;5072374;28;20277;-73
2022/11/05 06:06:32;;;;;;;0.10;0.10;;;7.70;99.90;6.50;97058.00;;;;5071315;28;20240;-74
2022/11/05 06:09:00;;;;;;;0.10;0.10;;;7.70;99.90;6.60;97066.00;;;;5070774;28;20202;-73
2022/11/05 06:11:28;;;;;;;0.10;0.10;;;7.70;99.90;6.60;97072.00;;;;5071665;28;20210;-73
2022/11/05 06:13:57;;;;;;;0.10;0.10;;;7.70;99.90;6.60;97065.00;;;;5071646;28;20202;-75
2022/11/05 06:16:25;;;;;;;0.10;0.10;;;7.70;99.90;6.40;97084.00;;;;5071240;28;20193;-75
2022/11/05 06:18:53;;;;;;;0.10;0.10;;;7.50;99.90;6.40;97071.00;;;;5070876;28;20244;-73
2022/11/05 06:21:22;;;;;;;0.10;0.10;;;7.60;99.90;6.50;97004.00;;;;5071428;28;20213;-74
2022/11/05 06:23:51;;;;;;;0.10;0.10;;;7.60;99.90;6.50;97076.00;;;;5071326;28;20202;-74
2022/11/05 06:26:19;;;;;;;0.10;0.10;;;7.70;99.90;6.60;97104.00;;;;5070848;28;20247;-74
2022/11/05 06:28:48;;;;;;;0.10;0.10;;;7.70;99.90;6.60;97091.00;;;;5070913;28;20633;-72
2022/11/05 06:31:16;;;;;;;0.10;0.10;;;7.70;99.90;6.60;97094.00;;;;5070600;28;20589;-72
2022/11/05 06:33:44;;;;;;;0.10;0.10;;;7.70;99.90;6.60;97094.00;;;;5070542;28;20232;-72
2022/11/05 06:36:16;;;;;;;0.10;0.10;;;7.70;99.90;6.60;97088.00;;;;5069667;28;20193;-72
2022/11/05 06:38:46;;;;;;;0.10;0.10;;;7.70;99.90;6.50;97087.00;;;;5076223;28;20226;-74
2022/11/05 06:41:14;;;;;;;0.10;0.10;;;7.60;99.90;6.60;97097.00;;;;5079143;28;20695;-73
2022/11/05 06:43:42;;;;;;;0.10;0.10;;;7.70;99.90;6.60;97106.00;;;;5081873;28;20238;-73
2022/11/05 06:46:11;;;;;;;0.10;0.10;;;7.70;99.90;6.60;97111.00;;;;5075197;28;20190;-73
2022/11/05 06:48:40;;;;;;;0.00;0.00;;;7.80;99.90;6.60;97107.00;;;;5079603;28;20198;-73
2022/11/05 06:51:09;;;;;;;0.00;0.00;;;7.80;99.90;6.60;97126.00;;;;5083432;28;20715;-71
2022/11/05 06:53:37;;;;;;;0.10;0.10;;;7.80;99.90;6.70;97124.00;;;;5073416;28;20201;-71
2022/11/05 06:56:08;;;;;;;0.10;0.10;;;7.80;99.90;6.80;97130.00;;;;5084235;28;20193;-71
2022/11/05 06:58:36;;;;;;;0.10;0.10;;;7.90;99.90;6.90;97137.00;;;;5082704;28;20720;-71
2022/11/05 07:01:07;;;;;;;0.10;0.10;;;8.00;99.90;7.00;97135.00;;;;5091311;28;20224;-71
2022/11/05 07:03:37;;;;;;;0.10;0.10;;;8.00;99.90;7.00;97149.00;;;;5081800;28;20209;-71
2022/11/05 07:06:07;;;;;;;0.10;0.10;;;8.00;99.90;7.00;97146.00;;;;5067122;28;20650;-71
2022/11/05 07:08:37;;;;;;;0.10;0.10;;;8.00;99.90;7.00;97154.00;;;;5071037;28;20263;-71
2022/11/05 07:11:07;;;;;;;0.10;0.10;;;8.10;99.90;7.10;97147.00;;;;5071454;28;20330;-71
2022/11/05 07:13:35;;;;;;;0.10;0.10;;;8.10;99.90;7.20;97146.00;;;;5057387;28;20195;-71
2022/11/05 07:16:03;;;;;;;0.10;0.10;;;8.30;99.90;7.20;97149.00;;;;5066320;28;20239;-71
2022/11/05 07:18:31;;;;;;;0.05;0.05;;;8.30;99.90;7.30;97143.00;;;;5070502;28;20259;-72
2022/11/05 07:21:00;;;;;;;0.10;0.10;;;8.40;99.90;7.30;97156.00;;;;5071061;28;20650;-71
2022/11/05 07:23:28;;;;;;;0.10;0.10;;;8.40;99.90;7.40;97151.00;;;;5071501;28;20198;-70
2022/11/05 07:25:56;;;;;;;0.10;0.10;;;8.50;99.90;7.40;97162.00;;;;5073721;28;20193;-70
2022/11/05 07:28:25;;;;;;;0.10;0.10;;;8.50;99.90;7.40;97163.00;;;;5082664;28;20648;-70
2022/11/05 07:30:53;;;;;;;0.10;0.10;;;8.50;99.90;7.40;97167.00;;;;5091259;28;20266;-70
2022/11/05 07:33:21;;;;;;;0.10;0.10;;;8.50;99.90;7.50;97177.00;;;;5091462;28;20652;-70
2022/11/05 07:35:50;;;;;;;0.10;0.10;;;8.50;99.90;7.40;97172.00;;;;5091739;28;20664;-71
2022/11/05 07:38:18;;;;;;;0.00;0.00;;;8.50;99.90;7.40;97174.00;;;;5090478;28;20664;-70
2022/11/05 07:40:46;;;;;;;0.10;0.10;;;8.40;99.90;7.00;97187.00;;;;5091200;28;20695;-70
2022/11/05 07:43:14;;;;;;;0.10;0.10;;;8.40;99.90;7.30;97182.00;;;;5094356;28;20648;-71
2022/11/05 07:45:46;;;;;;;0.10;0.10;;;8.30;99.90;7.30;97190.00;;;;5095028;28;20246;-71
2022/11/05 07:48:14;;;;;;;0.10;0.10;;;8.40;99.90;7.30;97194.00;;;;5094128;28;20235;-76
2022/11/05 07:50:42;;;;;;;0.10;0.10;;;8.40;99.90;7.40;97201.00;;;;5094226;28;20225;-71
2022/11/05 07:53:13;;;;;;;0.00;0.00;;;8.40;99.90;7.40;97202.00;;;;5094770;28;20215;-71
2022/11/05 07:55:44;;;;;;;0.10;0.10;;;8.40;99.90;7.40;97204.00;;;;5089567;28;20208;-72
2022/11/05 07:58:13;;;;;;;0.10;0.10;;;8.40;99.90;7.50;97212.00;;;;5070414;28;20196;-71
2022/11/05 08:00:41;;;;;;;0.10;0.10;;;8.50;99.90;7.50;97204.00;;;;5074775;28;20233;-71
2022/11/05 08:03:14;;;;;;;0.10;0.10;;;8.50;99.90;7.60;97205.00;;;;5074787;28;20532;-72
2022/11/05 08:05:47;;;;;;;0.10;0.10;;;8.60;99.90;7.70;97214.00;;;;5074339;28;20290;-71
2022/11/05 08:08:17;;;;;;;0.10;0.10;;;8.70;99.90;7.60;97213.00;;;;5073807;28;20201;-71
2022/11/05 08:10:46;;;;;;;0.10;0.10;;;8.60;99.90;7.60;97203.00;;;;5074507;28;20214;-71
2022/11/05 08:13:14;;;;;;;0.10;0.10;;;8.70;99.90;7.70;97207.00;;;;5074251;28;20247;-71
2022/11/05 08:15:43;;;;;;;0.10;0.10;;;8.70;99.90;7.80;97209.00;;;;5072021;28;20193;-71
2022/11/05 08:18:16;;;;;;;0.10;0.10;;;8.80;99.90;7.80;97218.00;;;;5071674;28;20563;-71
2022/11/05 08:20:47;;;;;;;0.10;0.10;;;8.80;99.90;7.80;97218.00;;;;5075162;28;20650;-71
2022/11/05 08:23:15;;;;;;;0.00;0.00;;;8.80;99.90;7.90;97223.00;;;;5073961;28;20197;-71
2022/11/05 08:25:43;;;;;;;0.10;0.10;;;8.90;99.90;8.00;97216.00;;;;5074725;28;20252;-71
2022/11/05 08:28:13;;;;;;;0.10;0.10;;;9.00;99.90;8.00;97216.00;;;;5085368;28;20238;-71
2022/11/05 08:30:41;;;;;;;0.10;0.10;;;9.00;99.90;8.00;97223.00;;;;5095330;28;20691;-71
2022/11/05 08:33:13;;;;;;;0.10;0.10;;;9.00;99.90;8.10;97216.00;;;;5086425;28;20186;-71
2022/11/05 08:35:42;;;;;;;0.10;0.10;;;9.10;99.90;8.20;97186.00;;;;5059879;28;20198;-71
2022/11/05 08:38:14;;;;;;;0.00;0.00;;;9.20;99.90;8.30;97215.00;;;;5069390;28;20247;-71
2022/11/05 08:40:44;;;;;;;0.08;0.08;;;9.30;99.90;8.40;97216.00;;;;5072681;28;20229;-72
2022/11/05 08:43:14;;;;;;;0.10;0.10;;;9.30;99.90;8.30;97221.00;;;;5073600;28;20190;-71
2022/11/05 08:45:42;;;;;;;0.10;0.10;;;9.30;99.90;8.30;97223.00;;;;5073696;28;20190;-71
2022/11/05 08:48:15;;;;;;;0.10;0.10;;;9.30;99.90;8.50;97223.00;;;;5073193;28;20198;-71
2022/11/05 08:50:44;;;;;;;0.10;0.10;;;9.50;99.90;8.60;97232.00;;;;5073521;28;20750;-72
2022/11/05 08:53:14;;;;;;;0.10;0.10;;;9.50;99.90;8.70;97230.00;;;;5071045;28;20190;-71
2022/11/05 08:55:45;;;;;;;0.00;0.00;;;9.60;99.90;8.70;97227.00;;;;5074583;28;20225;-71
2022/11/05 08:58:17;;;;;;;0.10;0.10;;;9.60;99.90;8.70;97232.00;;;;5062320;28;20197;-71
2022/11/05 09:00:48;;;;;;;0.00;0.00;;;9.60;99.90;8.70;97240.00;;;;5087763;28;20616;-71
2022/11/05 09:03:18;;;;;;;0.10;0.10;;;9.70;99.90;8.70;97227.00;;;;5070938;28;20198;-72
2022/11/05 09:05:47;;;;;;;0.10;0.10;;;9.70;99.90;8.70;97227.00;;;;5072808;28;20205;-72
2022/11/05 09:08:18;;;;;;;0.10;0.10;;;9.70;99.90;8.70;97238.00;;;;5071687;28;20263;-72
2022/11/05 09:10:48;;;;;;;0.03;0.03;;;9.70;99.90;8.80;97241.00;;;;5073020;28;20626;-72
2022/11/05 09:13:17;;;;;;;0.10;0.10;;;9.70;99.90;8.90;97237.00;;;;5072134;28;20200;-72
2022/11/05 09:15:48;;;;;;;0.00;0.00;;;9.80;99.90;9.00;97245.00;;;;5071981;28;20190;-71
2022/11/05 09:18:19;;;;;;;0.10;0.10;;;9.90;99.90;9.00;97254.00;;;;5072129;28;20243;-71
2022/11/05 09:20:48;;;;;;;0.10;0.10;;;9.90;99.90;9.00;97254.00;;;;5072108;28;20214;-71
2022/11/05 09:23:16;;;;;;;0.10;0.10;;;10.00;99.90;9.00;97244.00;;;;5072924;28;20193;-72
2022/11/05 09:25:45;;;;;;;0.10;0.10;;;10.00;99.90;9.10;97218.00;;;;5074999;28;20671;-72
2022/11/05 09:28:17;;;;;;;0.10;0.10;;;10.00;99.90;9.10;97256.00;;;;5081930;28;20177;-72
2022/11/05 09:30:48;;;;;;;0.10;0.10;;;10.00;99.90;9.20;97260.00;;;;5073218;28;20696;-72
2022/11/05 09:33:19;;;;;;;0.10;0.10;;;10.10;99.90;9.30;97258.00;;;;5071720;28;20231;-72
2022/11/05 09:35:48;;;;;;;0.10;0.10;;;10.20;99.90;9.30;97256.00;;;;5072357;28;20208;-72
2022/11/05 09:38:16;;;;;;;0.00;0.00;;;10.20;99.90;9.30;97264.00;;;;5071431;28;20212;-72
2022/11/05 09:40:56;;;;;;;0.00;0.00;;;10.20;99.90;9.30;97269.00;;;;5072108;28;20292;-72
2022/11/05 09:43:33;;;;;;;0.00;0.00;;;10.20;99.90;9.20;97253.00;;;;5072175;28;20205;-72
2022/11/05 09:46:10;;;;;;;0.10;0.10;;;10.20;99.90;9.20;97267.00;;;;5071304;28;20197;-71
2022/11/05 09:48:42;;;;;;;0.00;0.00;;;10.10;99.90;9.20;97263.00;;;;5071536;28;20522;-72
2022/11/05 09:51:15;;;;;;;0.10;0.10;;;10.10;99.90;9.20;97279.00;;;;5071376;28;20229;-72
2022/11/05 09:53:52;;;;;;;0.00;0.00;;;10.20;99.90;9.20;97238.00;;;;5072302;28;20203;-71
2022/11/05 09:56:24;;;;;;;0.00;0.00;;;10.20;99.90;9.20;97270.00;;;;5077850;28;20229;-72
2022/11/05 09:58:58;;;;;;;0.10;0.10;;;10.20;99.90;9.30;97271.00;;;;5082641;28;20200;-71
2022/11/05 10:01:33;;;;;;;0.10;0.10;;;10.30;99.90;9.40;97268.00;;;;5072492;28;20217;-71
2022/11/05 10:04:12;;;;;;;0.10;0.10;;;10.40;99.90;9.60;97278.00;;;;5071933;28;20189;-72
2022/11/05 10:06:49;;;;;;;0.10;0.10;;;10.50;99.90;9.80;97285.00;;;;5071927;28;20536;-72
2022/11/05 10:09:24;;;;;;;0.10;0.10;;;10.60;99.90;9.70;97287.00;;;;5061268;28;20209;-72
2022/11/05 10:11:58;;;;;;;0.00;0.00;;;10.70;99.90;9.80;97280.00;;;;5071165;28;20598;-72
2022/11/05 10:14:33;;;;;;;0.10;0.10;;;10.80;99.90;10.00;97235.00;;;;5074738;28;20664;-72
2022/11/05 10:17:10;;;;;;;0.10;0.10;;;10.90;99.90;10.20;97276.00;;;;5073751;28;20559;-72
2022/11/05 10:19:47;;;;;;;0.10;0.10;;;11.10;99.90;10.40;97281.00;;;;5072624;28;20200;-72
2022/11/05 10:22:18;;;;;;;0.10;0.10;;;11.20;99.90;10.40;97296.00;;;;5073230;28;20213;-72
2022/11/05 10:24:49;;;;;;;0.10;0.10;;;11.30;99.90;10.50;97283.00;;;;5072030;28;20235;-72
2022/11/05 10:27:23;;;;;;;0.10;0.10;;;11.30;99.90;10.50;97294.00;;;;5069853;28;20248;-72
2022/11/05 10:29:51;;;;;;;0.10;0.10;;;11.40;99.90;10.40;97283.00;;;;5083073;28;20205;-73
2022/11/05 10:32:29;;;;;;;0.10;0.10;;;11.30;99.90;10.40;97313.00;;;;5071797;28;20700;-72
2022/11/05 10:35:01;;;;;;;0.03;0.03;;;11.30;99.90;10.30;97289.00;;;;5071422;28;20189;-72
2022/11/05 10:37:32;;;;;;;0.10;0.10;;;11.30;99.90;10.30;97290.00;;;;5070620;28;20239;-72
2022/11/05 10:40:19;;;;;;;0.10;0.10;;;11.20;99.90;10.20;97302.00;;;;5053720;28;20221;-72
2022/11/05 10:43:02;;;;;;;0.00;0.00;;;11.30;99.90;10.60;97244.00;;;;5072132;28;20213;-72
2022/11/05 10:45:50;;;;;;;0.10;0.10;;;11.50;99.90;10.50;97306.00;;;;5072520;28;20564;-72
2022/11/05 10:48:43;;;;;;;0.10;0.10;;;11.40;99.90;10.60;97315.00;;;;5072926;28;20212;-72
2022/11/05 10:51:13;;;;;;;0.00;0.00;;;11.50;99.90;10.50;97195.00;;;;5072434;28;20217;-72
2022/11/05 10:53:51;;;;;;;0.10;0.10;;;11.40;99.90;10.50;97304.00;;;;5072448;28;20661;-72
2022/11/05 10:56:35;;;;;;;0.10;0.10;;;11.50;99.90;10.60;97300.00;;;;5078763;28;20207;-72
2022/11/05 10:59:07;;;;;;;0.10;0.10;;;11.50;99.90;10.50;97303.00;;;;5052667;28;20194;-72
2022/11/05 11:01:39;;;;;;;0.10;0.10;;;11.60;99.90;10.80;97312.00;;;;5051466;28;20225;-72
2022/11/05 11:04:20;;;;;;;0.10;0.10;;;11.70;99.90;11.00;97281.00;;;;5051991;28;20665;-72
2022/11/05 11:06:53;;;;;;;0.10;0.10;;;11.80;99.90;10.90;97299.00;;;;5051808;28;20198;-72
2022/11/05 11:09:26;;;;;;;0.10;0.10;;;11.70;99.90;11.10;97306.00;;;;5051235;28;20190;-72
2022/11/05 11:12:02;;;;;;;0.10;0.10;;;11.80;99.90;11.00;97298.00;;;;5050301;28;20230;-72
2022/11/05 11:14:31;;;;;;;0.10;0.10;;;11.90;99.90;10.80;97292.00;;;;5067886;28;20631;-72
2022/11/05 11:17:26;;;;;;;0.00;0.00;;;11.70;99.90;10.90;97213.00;;;;5074195;28;20193;-72
2022/11/05 11:20:28;;;;;;;0.10;0.10;;;11.70;99.90;11.10;97302.00;;;;5077116;28;20220;-72
2022/11/05 11:23:12;;;;;;;0.10;0.10;;;11.80;99.90;11.00;97265.00;;;;5076484;28;20212;-72
2022/11/05 11:25:50;;;;;;;0.10;0.10;;;11.80;99.90;11.10;97309.00;;;;5059934;28;20574;-72
2022/11/05 11:28:24;;;;;;;0.00;0.00;;;11.90;99.90;11.30;97319.00;;;;5068710;28;20675;-72
2022/11/05 11:31:03;;;;;;;0.00;0.00;;;12.10;99.90;11.60;97313.00;;;;5095925;28;20209;-72
2022/11/05 11:33:33;;;;;;;0.10;0.10;;;12.20;99.90;12.00;97318.00;;;;5096053;28;20200;-72
2022/11/05 11:36:02;;;;;;;0.00;0.00;;;12.30;99.90;12.50;97317.00;;;;5096491;28;20189;-72
2022/11/05 11:38:35;;;;;;;0.00;0.00;;;12.50;99.90;12.80;97330.00;;;;5077548;28;20713;-72
2022/11/05 11:41:25;;;;;;;0.10;0.10;;;12.70;99.90;12.20;97324.00;;;;5095506;28;20289;-72
2022/11/05 11:43:59;;;;;;;0.10;0.10;;;12.80;99.90;11.90;97319.00;;;;5095612;28;20334;-72
2022/11/05 11:46:33;;;;;;;0.10;0.10;;;12.50;99.90;12.10;97316.00;;;;5095613;28;20197;-72
2022/11/05 11:49:02;;;;;;;0.08;0.08;;;12.50;99.90;12.40;97317.00;;;;5095048;28;20238;-72
2022/11/05 11:51:35;;;;;;;0.00;0.00;;;12.60;99.90;12.40;97312.00;;;;5057919;28;20766;-73
2022/11/05 11:54:19;;;;;;;0.08;0.08;;;12.70;99.90;13.00;97320.00;;;;5075500;28;20617;-73
2022/11/05 11:56:48;;;;;;;0.00;0.00;;;12.70;99.90;12.20;97329.00;;;;5083764;28;20197;-73
2022/11/05 11:59:25;;;;;;;0.08;0.08;;;12.40;99.90;11.70;97333.00;;;;5075640;28;20551;-71
2022/11/05 12:02:41;;;;;;;0.10;0.10;;;12.30;99.90;11.40;97325.00;;;;5075047;28;20305;-71
2022/11/05 12:05:28;;;;;;;0.00;0.00;;;12.20;99.90;11.20;97334.00;;;;5074516;28;20194;-73
2022/11/05 12:08:04;;;;;;;0.00;0.00;;;12.10;99.90;11.40;97325.00;;;;5074269;28;20189;-71
2022/11/05 12:10:55;;;;;;;0.00;0.00;;;12.20;99.90;11.40;97327.00;;;;5074319;28;20719;-71
2022/11/05 12:14:03;;;;;;;0.00;0.00;;;12.20;99.90;11.30;97331.00;;;;5074946;28;20279;-72
2022/11/05 12:17:15;;;;;;;0.05;0.05;;;12.20;99.90;11.60;97330.00;;;;5076601;28;20202;-71
2022/11/05 12:20:31;;;;;;;0.00;0.00;;;12.30;99.90;12.10;97326.00;;;;5051820;28;20205;-72
2022/11/05 12:23:19;;;;;;;0.00;0.00;;;12.70;99.90;12.40;97324.00;;;;5073613;28;20241;-72